createdAt,value
2022-10-07T00:01:07.754Z,13.32
2022-10-07T00:03:35.974Z,13.27
2022-10-07T00:06:20.773Z,13.19
2022-10-07T00:08:52.336Z,13.13
2022-10-07T00:11:26.780Z,12.98
2022-10-07T00:14:01.401Z,13.20
2022-10-07T00:16:33.817Z,13.19
2022-10-07T00:19:05.010Z,13.06
2022-10-07T00:21:34.935Z,12.90
2022-10-07T00:24:03.191Z,12.88
2022-10-07T00:26:33.262Z,13.04
2022-10-07T00:29:01.631Z,12.91
2022-10-07T00:31:32.889Z,12.58
2022-10-07T00:34:02.712Z,12.56
2022-10-07T00:36:36.801Z,12.60
2022-10-07T00:39:12.054Z,12.27
2022-10-07T00:41:50.191Z,12.13
2022-10-07T00:44:33.990Z,11.95
2022-10-07T00:47:29.409Z,11.75
2022-10-07T00:50:10.575Z,11.60
2022-10-07T00:52:52.426Z,11.60
2022-10-07T00:55:25.041Z,11.70
2022-10-07T00:57:57.327Z,11.64
2022-10-07T01:00:28.114Z,11.84
2022-10-07T01:02:55.700Z,11.85
2022-10-07T01:05:23.422Z,11.88
2022-10-07T01:07:53.991Z,11.79
2022-10-07T01:10:24.480Z,11.58
2022-10-07T01:13:19.736Z,11.58
2022-10-07T01:16:23.367Z,11.68
2022-10-07T01:19:36.393Z,11.87
2022-10-07T01:22:32.777Z,11.91
2022-10-07T01:25:43.787Z,11.83
2022-10-07T01:28:23.799Z,11.84
2022-10-07T01:30:58.287Z,11.82
2022-10-07T01:33:31.945Z,11.89
2022-10-07T01:36:15.607Z,11.90
2022-10-07T01:38:53.485Z,11.82
2022-10-07T01:41:23.268Z,11.87
2022-10-07T01:43:55.005Z,11.87
2022-10-07T01:46:26.532Z,11.79
2022-10-07T01:48:57.535Z,11.60
2022-10-07T01:51:29.838Z,11.54
2022-10-07T01:54:38.913Z,11.45
2022-10-07T01:57:26.168Z,11.39
2022-10-07T02:00:10.229Z,11.18
2022-10-07T02:03:27.908Z,11.25
2022-10-07T02:06:29.070Z,11.35
2022-10-07T02:09:00.880Z,11.34
2022-10-07T02:11:32.839Z,11.27
2022-10-07T02:14:31.582Z,11.18
2022-10-07T02:17:10.750Z,11.20
2022-10-07T02:19:48.321Z,11.19
2022-10-07T02:22:18.489Z,11.41
2022-10-07T02:24:49.427Z,11.58
2022-10-07T02:27:23.413Z,11.43
2022-10-07T02:30:08.900Z,11.51
2022-10-07T02:32:41.328Z,11.55
2022-10-07T02:35:23.340Z,11.49
2022-10-07T02:37:56.300Z,11.61
2022-10-07T02:40:33.137Z,11.75
2022-10-07T02:43:30.413Z,11.73
2022-10-07T02:46:12.350Z,11.62
2022-10-07T02:49:10.080Z,11.43
2022-10-07T02:51:48.067Z,11.41
2022-10-07T02:54:24.020Z,11.39
2022-10-07T02:56:52.508Z,11.53
2022-10-07T02:59:22.008Z,11.97
2022-10-07T03:01:54.354Z,11.49
2022-10-07T03:04:23.879Z,11.17
2022-10-07T03:06:52.330Z,10.98
2022-10-07T03:09:20.012Z,10.83
2022-10-07T03:11:47.663Z,10.92
2022-10-07T03:14:15.392Z,10.53
2022-10-07T03:16:42.901Z,9.97
2022-10-07T03:19:10.967Z,9.98
2022-10-07T03:21:51.894Z,10.10
2022-10-07T03:24:22.784Z,9.84
2022-10-07T03:26:51.460Z,9.79
2022-10-07T03:29:19.882Z,9.75
2022-10-07T03:31:47.625Z,10.69
2022-10-07T03:34:15.303Z,9.86
2022-10-07T03:36:46.592Z,9.76
2022-10-07T03:39:14.299Z,9.95
2022-10-07T03:41:42.481Z,9.76
2022-10-07T03:44:11.270Z,9.76
2022-10-07T03:46:38.860Z,10.23
2022-10-07T03:49:06.685Z,10.40
2022-10-07T03:51:36.237Z,10.29
2022-10-07T03:54:06.742Z,10.50
2022-10-07T03:56:35.614Z,10.34
2022-10-07T03:59:03.501Z,10.11
2022-10-07T04:01:32.555Z,10.04
2022-10-07T04:04:01.311Z,10.23
2022-10-07T04:06:32.733Z,9.96
2022-10-07T04:09:03.876Z,10.00
2022-10-07T04:11:31.467Z,10.27
2022-10-07T04:14:00.809Z,10.16
2022-10-07T04:16:29.669Z,10.09
2022-10-07T04:18:57.970Z,10.23
2022-10-07T04:21:28.347Z,10.17
2022-10-07T04:23:55.926Z,10.20
2022-10-07T04:26:23.703Z,10.41
2022-10-07T04:28:51.964Z,10.89
2022-10-07T04:31:22.179Z,10.35
2022-10-07T04:33:56.435Z,10.13
2022-10-07T04:36:28.627Z,10.29
2022-10-07T04:39:05.762Z,10.22
2022-10-07T04:41:36.929Z,10.16
2022-10-07T04:44:09.283Z,10.08
2022-10-07T04:46:43.428Z,9.89
2022-10-07T04:49:14.241Z,9.79
2022-10-07T04:51:41.778Z,9.84
2022-10-07T04:54:10.293Z,9.69
2022-10-07T04:56:51.824Z,9.51
2022-10-07T04:59:24.133Z,9.67
2022-10-07T05:01:54.618Z,9.74
2022-10-07T05:04:25.457Z,9.75
2022-10-07T05:06:55.435Z,9.67
2022-10-07T05:09:24.518Z,9.62
2022-10-07T05:11:57.710Z,9.56
2022-10-07T05:14:25.480Z,9.65
2022-10-07T05:16:54.075Z,9.63
2022-10-07T05:19:25.986Z,9.55
2022-10-07T05:21:54.674Z,9.63
2022-10-07T05:24:22.358Z,9.67
2022-10-07T05:26:51.572Z,9.74
2022-10-07T05:29:19.686Z,10.06
2022-10-07T05:31:50.847Z,10.20
2022-10-07T05:34:22.233Z,10.22
2022-10-07T05:36:50.075Z,10.30
2022-10-07T05:39:17.682Z,10.53
2022-10-07T05:41:56.095Z,10.84
2022-10-07T05:44:31.430Z,10.85
2022-10-07T05:47:02.464Z,10.64
2022-10-07T05:49:30.904Z,10.77
2022-10-07T05:51:59.212Z,10.98
2022-10-07T05:54:26.775Z,11.48
2022-10-07T05:56:55.799Z,11.43
2022-10-07T05:59:24.619Z,11.41
2022-10-07T06:01:53.168Z,11.80
2022-10-07T06:04:21.988Z,11.84
2022-10-07T06:06:52.377Z,11.94
2022-10-07T06:09:39.119Z,12.31
2022-10-07T06:12:31.718Z,12.20
2022-10-07T06:15:01.477Z,12.49
2022-10-07T06:17:29.915Z,12.41
2022-10-07T06:20:00.381Z,12.70
2022-10-07T06:22:28.170Z,12.71
2022-10-07T06:24:58.882Z,13.00
2022-10-07T06:27:27.092Z,13.17
2022-10-07T06:29:55.728Z,13.42
2022-10-07T06:32:23.327Z,13.61
2022-10-07T06:34:51.721Z,13.81
2022-10-07T06:37:20.674Z,13.80
2022-10-07T06:39:48.572Z,13.92
2022-10-07T06:42:16.019Z,14.24
2022-10-07T06:45:05.273Z,14.40
2022-10-07T06:47:32.955Z,14.47
2022-10-07T06:50:00.486Z,14.49
2022-10-07T06:52:29.097Z,14.96
2022-10-07T06:54:59.096Z,15.29
2022-10-07T06:57:44.728Z,15.58
2022-10-07T07:00:14.312Z,15.62
2022-10-07T07:02:45.016Z,16.01
2022-10-07T07:05:16.951Z,15.94
2022-10-07T07:07:47.156Z,15.97
2022-10-07T07:10:15.189Z,16.46
2022-10-07T07:12:47.952Z,16.56
2022-10-07T07:15:15.959Z,16.72
2022-10-07T07:17:44.216Z,16.93
2022-10-07T07:20:15.508Z,16.99
2022-10-07T07:22:43.496Z,17.34
2022-10-07T07:25:11.947Z,17.54
2022-10-07T07:27:42.013Z,17.82
2022-10-07T07:30:13.393Z,17.63
2022-10-07T07:32:41.708Z,17.90
2022-10-07T07:35:09.676Z,18.13
2022-10-07T07:37:38.477Z,18.34
2022-10-07T07:40:07.253Z,18.09
2022-10-07T07:42:35.325Z,18.10
2022-10-07T07:45:04.322Z,18.21
2022-10-07T07:47:35.678Z,18.53
2022-10-07T07:50:05.157Z,19.20
2022-10-07T07:52:34.951Z,19.12
2022-10-07T07:55:04.923Z,19.22
2022-10-07T07:57:33.899Z,19.35
2022-10-07T08:00:07.574Z,19.51
2022-10-07T08:03:00.174Z,19.58
2022-10-07T08:05:28.590Z,19.54
2022-10-07T08:07:58.815Z,19.59
2022-10-07T08:10:27.441Z,19.73
2022-10-07T08:12:55.998Z,19.63
2022-10-07T08:15:25.145Z,19.78
2022-10-07T08:17:53.816Z,19.79
2022-10-07T08:20:21.321Z,20.19
2022-10-07T08:22:52.668Z,20.12
2022-10-07T08:25:22.570Z,20.32
2022-10-07T08:27:50.911Z,20.58
2022-10-07T08:30:18.596Z,20.72
2022-10-07T08:32:46.702Z,21.06
2022-10-07T08:35:14.274Z,21.16
2022-10-07T08:37:41.694Z,21.46
2022-10-07T08:40:16.598Z,21.21
2022-10-07T08:42:45.931Z,21.30
2022-10-07T08:45:32.092Z,21.72
2022-10-07T08:48:05.425Z,21.50
2022-10-07T08:51:11.612Z,21.68
2022-10-07T08:53:39.199Z,21.95
2022-10-07T08:56:20.646Z,21.98
2022-10-07T08:59:10.113Z,22.41
2022-10-07T09:01:47.060Z,22.51
2022-10-07T09:04:44.200Z,22.78
2022-10-07T09:07:18.916Z,22.85
2022-10-07T09:10:09.788Z,23.00
2022-10-07T09:13:00.459Z,22.82
2022-10-07T09:15:46.396Z,23.22
2022-10-07T09:18:31.933Z,23.51
2022-10-07T09:21:00.629Z,23.61
2022-10-07T09:23:33.962Z,23.32
2022-10-07T09:26:01.578Z,23.44
2022-10-07T09:28:32.980Z,23.65
2022-10-07T09:31:03.173Z,24.40
2022-10-07T09:33:31.319Z,23.85
2022-10-07T09:36:11.388Z,24.12
2022-10-07T09:38:45.059Z,24.57
2022-10-07T09:41:36.396Z,24.23
2022-10-07T09:44:16.403Z,24.32
2022-10-07T09:46:59.526Z,24.90
2022-10-07T09:49:29.501Z,24.93
2022-10-07T09:52:23.424Z,24.76
2022-10-07T09:54:54.584Z,24.56
2022-10-07T09:57:34.326Z,24.55
2022-10-07T10:00:13.852Z,24.71
2022-10-07T10:03:05.808Z,24.76
2022-10-07T10:06:15.568Z,25.12
2022-10-07T10:08:44.776Z,25.30
2022-10-07T10:11:20.798Z,25.15
2022-10-07T10:13:51.041Z,25.21
2022-10-07T10:16:40.603Z,25.45
2022-10-07T10:19:27.963Z,25.79
2022-10-07T10:21:58.504Z,25.85
2022-10-07T10:24:52.885Z,26.00
2022-10-07T10:27:33.165Z,25.78
2022-10-07T10:30:07.038Z,26.00
2022-10-07T10:32:49.582Z,26.07
2022-10-07T10:35:29.069Z,26.02
2022-10-07T10:38:53.223Z,26.42
2022-10-07T10:41:32.505Z,26.30
2022-10-07T10:44:24.284Z,26.39
2022-10-07T10:46:52.196Z,26.74
2022-10-07T10:49:53.164Z,26.60
2022-10-07T10:52:56.135Z,26.76
2022-10-07T10:55:36.770Z,27.09
2022-10-07T10:58:27.931Z,27.20
2022-10-07T11:01:34.967Z,27.49
2022-10-07T11:04:47.886Z,27.44
2022-10-07T11:07:44.218Z,27.63
2022-10-07T11:10:29.795Z,27.54
2022-10-07T11:13:19.140Z,27.58
2022-10-07T11:15:53.794Z,27.44
2022-10-07T11:18:43.065Z,27.55
2022-10-07T11:21:22.250Z,28.03
2022-10-07T11:24:02.284Z,28.54
2022-10-07T11:27:17.941Z,28.36
2022-10-07T11:30:06.674Z,28.79
2022-10-07T11:33:15.390Z,28.91
2022-10-07T11:35:54.324Z,29.28
2022-10-07T11:38:29.678Z,29.35
2022-10-07T11:41:04.887Z,29.37
2022-10-07T11:43:46.327Z,29.21
2022-10-07T11:46:34.457Z,29.28
2022-10-07T11:49:07.931Z,29.72
2022-10-07T11:51:50.572Z,30.04
2022-10-07T11:54:45.475Z,30.69
2022-10-07T11:57:24.907Z,30.77
2022-10-07T12:00:09.541Z,30.65
2022-10-07T12:02:46.541Z,30.61
2022-10-07T12:05:55.241Z,30.99
2022-10-07T12:08:38.809Z,30.91
2022-10-07T12:11:15.631Z,31.18
2022-10-07T12:13:52.852Z,30.11
2022-10-07T12:16:32.011Z,30.12
2022-10-07T12:19:11.653Z,30.62
2022-10-07T12:21:59.777Z,31.33
2022-10-07T12:24:32.250Z,31.39
2022-10-07T12:27:18.629Z,31.69
2022-10-07T12:29:49.041Z,31.96
2022-10-07T12:32:51.724Z,31.70
2022-10-07T12:35:45.139Z,31.28
2022-10-07T12:38:23.678Z,31.20
2022-10-07T12:41:15.074Z,31.73
2022-10-07T12:44:12.163Z,32.05
2022-10-07T12:46:51.492Z,32.41
2022-10-07T12:49:55.812Z,32.71
2022-10-07T12:52:23.313Z,32.65
2022-10-07T12:55:29.640Z,33.12
2022-10-07T12:58:18.413Z,33.22
2022-10-07T13:01:41.888Z,33.56
2022-10-07T13:04:37.451Z,33.54
2022-10-07T13:07:28.187Z,33.37
2022-10-07T13:10:20.147Z,33.64
2022-10-07T13:12:55.841Z,33.81
2022-10-07T13:15:35.369Z,34.39
2022-10-07T13:18:26.667Z,34.58
2022-10-07T13:21:26.327Z,34.59
2022-10-07T13:23:56.525Z,35.25
2022-10-07T13:26:26.848Z,35.56
2022-10-07T13:28:57.604Z,35.47
2022-10-07T13:31:33.429Z,35.61
2022-10-07T13:34:15.812Z,35.79
2022-10-07T13:36:44.047Z,36.48
2022-10-07T13:39:21.743Z,36.84
2022-10-07T13:41:55.827Z,36.89
2022-10-07T13:44:27.584Z,37.33
2022-10-07T13:47:05.124Z,37.30
2022-10-07T13:49:43.796Z,37.56
2022-10-07T13:52:35.230Z,37.85
2022-10-07T13:55:02.928Z,37.34
2022-10-07T13:57:31.941Z,36.98
2022-10-07T14:00:00.496Z,36.89
2022-10-07T14:02:28.447Z,37.18
2022-10-07T14:05:01.598Z,37.14
2022-10-07T14:07:32.694Z,37.32
2022-10-07T14:10:00.664Z,37.19
2022-10-07T14:12:43.150Z,37.79
2022-10-07T14:15:34.304Z,37.66
2022-10-07T14:18:12.383Z,37.29
2022-10-07T14:20:52.344Z,37.56
2022-10-07T14:23:34.285Z,37.72
2022-10-07T14:26:15.518Z,37.29
2022-10-07T14:28:44.435Z,37.10
2022-10-07T14:31:41.058Z,37.42
2022-10-07T14:34:33.084Z,37.00
2022-10-07T14:37:31.057Z,37.01
2022-10-07T14:40:00.921Z,36.82
2022-10-07T14:42:35.936Z,36.44
2022-10-07T14:45:08.062Z,36.73
2022-10-07T14:47:39.058Z,36.30
2022-10-07T14:50:07.169Z,36.30
2022-10-07T14:52:49.868Z,36.21
2022-10-07T14:55:23.968Z,35.82
2022-10-07T14:57:52.618Z,35.04
2022-10-07T15:00:29.446Z,33.54
2022-10-07T15:02:58.080Z,32.23
2022-10-07T15:05:27.577Z,31.00
2022-10-07T15:07:55.067Z,30.10
2022-10-07T15:10:26.833Z,29.50
2022-10-07T15:12:59.541Z,28.81
2022-10-07T15:15:27.046Z,28.43
2022-10-07T15:17:54.569Z,27.99
2022-10-07T15:20:22.234Z,27.56
2022-10-07T15:22:51.888Z,27.01
2022-10-07T15:25:22.133Z,26.48
2022-10-07T15:27:49.641Z,26.28
2022-10-07T15:30:17.253Z,26.24
2022-10-07T15:32:45.068Z,25.91
2022-10-07T15:35:12.995Z,25.61
2022-10-07T15:37:45.775Z,25.40
2022-10-07T15:40:14.764Z,25.20
2022-10-07T15:42:44.805Z,25.00
2022-10-07T15:45:16.721Z,24.92
2022-10-07T15:47:44.327Z,24.64
2022-10-07T15:50:11.894Z,24.41
2022-10-07T15:52:39.460Z,24.20
2022-10-07T15:55:08.034Z,24.21
2022-10-07T15:57:36.220Z,24.16
2022-10-07T16:00:05.723Z,24.06
2022-10-07T16:02:39.400Z,23.71
2022-10-07T16:05:07.744Z,23.55
2022-10-07T16:07:35.324Z,23.36
2022-10-07T16:10:03.616Z,23.40
2022-10-07T16:12:31.129Z,23.23
2022-10-07T16:14:58.887Z,22.85
2022-10-07T16:17:27.760Z,22.77
2022-10-07T16:19:55.356Z,22.60
2022-10-07T16:22:31.611Z,22.53
2022-10-07T16:25:01.889Z,22.37
2022-10-07T16:27:50.802Z,22.29
2022-10-07T16:30:37.715Z,22.27
2022-10-07T16:33:05.340Z,22.10
2022-10-07T16:35:32.862Z,21.94
2022-10-07T16:38:00.973Z,21.78
2022-10-07T16:40:28.666Z,21.74
2022-10-07T16:42:59.618Z,21.57
2022-10-07T16:45:27.841Z,21.42
2022-10-07T16:48:00.253Z,21.49
2022-10-07T16:50:28.931Z,21.37
2022-10-07T16:53:00.762Z,21.52
2022-10-07T16:55:29.344Z,21.69
2022-10-07T16:57:57.121Z,21.42
2022-10-07T17:00:24.910Z,21.46
2022-10-07T17:02:52.394Z,21.49
2022-10-07T17:05:19.944Z,21.42
2022-10-07T17:07:50.491Z,21.36
2022-10-07T17:10:23.363Z,21.28
2022-10-07T17:12:50.986Z,21.04
2022-10-07T17:15:18.562Z,21.03
2022-10-07T17:17:48.487Z,20.92
2022-10-07T17:20:16.928Z,20.87
2022-10-07T17:22:44.470Z,20.75
2022-10-07T17:25:14.436Z,20.64
2022-10-07T17:27:43.867Z,20.61
2022-10-07T17:30:16.733Z,20.51
2022-10-07T17:32:45.129Z,20.40
2022-10-07T17:35:14.708Z,20.28
2022-10-07T17:37:42.589Z,20.23
2022-10-07T17:40:10.831Z,20.31
2022-10-07T17:42:38.408Z,20.25
2022-10-07T17:45:06.914Z,20.16
2022-10-07T17:47:35.521Z,20.00
2022-10-07T17:50:04.446Z,19.98
2022-10-07T17:52:35.725Z,19.87
2022-10-07T17:55:06.198Z,19.89
2022-10-07T17:57:35.198Z,19.89
2022-10-07T18:00:06.634Z,19.83
2022-10-07T18:02:40.080Z,19.81
2022-10-07T18:05:09.635Z,19.62
2022-10-07T18:07:37.407Z,19.52
2022-10-07T18:10:05.223Z,19.55
2022-10-07T18:12:52.422Z,19.52
2022-10-07T18:15:21.737Z,19.57
2022-10-07T18:17:52.618Z,19.37
2022-10-07T18:20:22.870Z,19.36
2022-10-07T18:23:00.446Z,19.30
2022-10-07T18:25:31.516Z,19.22
2022-10-07T18:28:01.666Z,19.28
2022-10-07T18:30:30.003Z,19.24
2022-10-07T18:32:57.762Z,19.11
2022-10-07T18:35:28.311Z,19.13
2022-10-07T18:37:58.288Z,19.09
2022-10-07T18:40:27.049Z,18.99
2022-10-07T18:42:55.832Z,18.93
2022-10-07T18:45:26.086Z,18.92
2022-10-07T18:47:53.743Z,18.82
2022-10-07T18:50:23.999Z,18.74
2022-10-07T18:52:51.596Z,18.67
2022-10-07T18:55:19.706Z,18.57
2022-10-07T18:57:48.517Z,18.59
2022-10-07T19:00:16.374Z,18.45
2022-10-07T19:02:50.027Z,18.40
2022-10-07T19:05:20.520Z,18.39
2022-10-07T19:07:48.707Z,18.28
2022-10-07T19:10:16.511Z,18.55
2022-10-07T19:13:02.944Z,18.51
2022-10-07T19:15:30.547Z,18.00
2022-10-07T19:18:00.732Z,18.12
2022-10-07T19:20:31.074Z,18.12
2022-10-07T19:23:00.285Z,17.74
2022-10-07T19:25:47.415Z,17.15
2022-10-07T19:28:17.550Z,16.65
2022-10-07T19:30:45.334Z,16.72
2022-10-07T19:33:12.897Z,16.95
2022-10-07T19:35:42.704Z,16.82
2022-10-07T19:38:10.658Z,17.12
2022-10-07T19:40:45.400Z,16.93
2022-10-07T19:43:13.756Z,16.59
2022-10-07T19:45:43.127Z,16.71
2022-10-07T19:48:14.440Z,16.74
2022-10-07T19:50:42.277Z,16.69
2022-10-07T19:53:10.389Z,16.63
2022-10-07T19:55:38.416Z,16.54
2022-10-07T19:58:06.103Z,16.55
2022-10-07T20:00:35.911Z,16.66
2022-10-07T20:03:04.468Z,16.65
2022-10-07T20:05:32.839Z,16.68
2022-10-07T20:08:01.706Z,16.74
2022-10-07T20:10:30.027Z,16.79
2022-10-07T20:12:57.526Z,16.66
2022-10-07T20:15:25.214Z,16.61
2022-10-07T20:17:55.911Z,16.43
2022-10-07T20:20:24.432Z,16.48
2022-10-07T20:22:51.889Z,16.44
2022-10-07T20:25:19.411Z,16.40
2022-10-07T20:27:49.107Z,16.38
2022-10-07T20:30:18.356Z,16.34
2022-10-07T20:32:46.272Z,16.38
2022-10-07T20:35:14.131Z,16.43
2022-10-07T20:37:41.935Z,16.71
2022-10-07T20:40:29.122Z,16.66
2022-10-07T20:42:59.989Z,16.53
2022-10-07T20:45:27.555Z,16.43
2022-10-07T20:47:59.570Z,17.06
2022-10-07T20:50:28.811Z,17.54
2022-10-07T20:52:56.994Z,17.16
2022-10-07T20:55:24.613Z,16.97
2022-10-07T20:57:53.477Z,16.89
2022-10-07T21:00:21.299Z,16.87
2022-10-07T21:02:50.954Z,16.69
2022-10-07T21:05:18.737Z,16.74
2022-10-07T21:07:50.198Z,16.71
2022-10-07T21:10:24.446Z,16.64
2022-10-07T21:12:52.430Z,16.42
2022-10-07T21:15:20.431Z,16.48
2022-10-07T21:17:48.841Z,16.37
2022-10-07T21:20:16.461Z,16.28
2022-10-07T21:22:44.427Z,16.40
2022-10-07T21:25:12.844Z,16.42
2022-10-07T21:27:40.434Z,16.30
2022-10-07T21:30:10.501Z,15.96
2022-10-07T21:32:38.066Z,15.74
2022-10-07T21:35:08.729Z,15.74
2022-10-07T21:37:36.407Z,15.67
2022-10-07T21:40:04.159Z,15.59
2022-10-07T21:42:32.524Z,15.52
2022-10-07T21:45:00.171Z,15.63
2022-10-07T21:47:27.720Z,15.65
2022-10-07T21:49:56.917Z,15.56
2022-10-07T21:52:24.544Z,15.34
2022-10-07T21:54:52.594Z,15.37
2022-10-07T21:57:20.260Z,15.39
2022-10-07T21:59:47.769Z,15.37
2022-10-07T22:02:15.443Z,15.39
2022-10-07T22:04:43.288Z,15.55
2022-10-07T22:07:32.604Z,15.55
2022-10-07T22:10:00.469Z,15.44
2022-10-07T22:12:28.053Z,15.37
2022-10-07T22:14:55.575Z,15.53
2022-10-07T22:17:23.622Z,15.53
2022-10-07T22:19:51.278Z,15.49
2022-10-07T22:22:19.157Z,15.53
2022-10-07T22:24:46.729Z,15.52
2022-10-07T22:27:14.281Z,15.41
2022-10-07T22:29:42.635Z,15.48
2022-10-07T22:32:11.076Z,15.47
2022-10-07T22:34:57.165Z,15.39
2022-10-07T22:37:24.820Z,15.37
2022-10-07T22:39:52.939Z,15.31
2022-10-07T22:42:20.516Z,15.06
2022-10-07T22:44:48.080Z,15.09
2022-10-07T22:47:16.807Z,15.23
2022-10-07T22:49:44.434Z,15.14
2022-10-07T22:52:13.550Z,14.64
2022-10-07T22:54:42.621Z,14.21
2022-10-07T22:57:10.533Z,14.33
2022-10-07T22:59:38.899Z,14.19
2022-10-07T23:02:06.538Z,13.73
2022-10-07T23:04:34.616Z,13.72
2022-10-07T23:07:02.159Z,13.57
2022-10-07T23:09:29.716Z,13.56
2022-10-07T23:11:57.998Z,13.53
2022-10-07T23:14:25.613Z,13.67
2022-10-07T23:16:53.147Z,13.88
2022-10-07T23:19:20.712Z,14.06
2022-10-07T23:21:48.695Z,14.08
2022-10-07T23:24:16.305Z,14.09
2022-10-07T23:26:46.169Z,13.85
2022-10-07T23:29:14.122Z,14.13
2022-10-07T23:31:42.163Z,13.86
2022-10-07T23:34:11.654Z,13.92
2022-10-07T23:36:40.918Z,13.67
2022-10-07T23:39:08.481Z,13.77
2022-10-07T23:41:36.114Z,13.73
2022-10-07T23:44:04.107Z,13.73
2022-10-07T23:46:35.070Z,13.82
2022-10-07T23:49:03.794Z,13.71
2022-10-07T23:51:32.483Z,13.66
2022-10-07T23:54:02.835Z,13.14
2022-10-07T23:56:31.072Z,13.11
2022-10-07T23:58:58.759Z,13.19
